Time;durP1;ratioP1;P1;durP2;ratioP2;P2;SDS_P1;SDS_P2;PMS_P1;PMS_P2;Temp;Humidity;BMP_temperature;BMP_pressure;BME280_temperature;BME280_humidity;BME280_pressure;Samples;Min_cycle;Max_cycle;Signal;HPM_P1;HPM_P2
2021/08/10 00:02:23;;;;;;;58.10;32.97;;;;;;;21.67;71.64;99748.19;5167500;27;19914;-75
2021/08/10 00:04:50;;;;;;;55.78;32.95;;;;;;;21.68;72.03;99750.69;5174865;27;20058;-73
2021/08/10 00:07:16;;;;;;;52.80;29.57;;;;;;;21.67;71.98;99738.28;5171736;27;20483;-70
2021/08/10 00:09:42;;;;;;;58.08;30.13;;;;;;;21.68;71.68;99741.78;5155483;27;20106;-74
2021/08/10 00:12:09;;;;;;;48.05;29.10;;;;;;;21.69;71.93;99744.28;5157787;27;20489;-69
2021/08/10 00:14:36;;;;;;;54.83;29.50;;;;;;;21.64;72.05;99747.53;5150847;27;20035;-71
2021/08/10 00:17:02;;;;;;;52.92;29.65;;;;;;;21.60;71.80;99745.44;5154056;27;20046;-70
2021/08/10 00:19:27;;;;;;;52.83;29.40;;;;;;;21.54;72.20;99738.91;5153465;27;20527;-70
2021/08/10 00:21:53;;;;;;;55.38;29.85;;;;;;;21.48;72.59;99743.22;5159782;27;20046;-70
2021/08/10 00:24:19;;;;;;;56.60;30.70;;;;;;;21.49;72.48;99733.25;5155559;27;20065;-71
2021/08/10 00:26:45;;;;;;;56.42;30.27;;;;;;;21.46;72.59;99736.34;5156254;27;20035;-75
2021/08/10 00:29:11;;;;;;;51.47;28.85;;;;;;;21.42;72.98;99738.56;5135604;27;20045;-75
2021/08/10 00:31:37;;;;;;;47.90;28.80;;;;;;;21.42;72.98;99730.50;5154958;27;20043;-72
2021/08/10 00:34:03;;;;;;;46.10;27.60;;;;;;;21.41;72.99;99734.22;5149485;27;20104;-75
2021/08/10 00:36:29;;;;;;;47.17;27.20;;;;;;;21.37;73.43;99727.53;5141290;27;20093;-74
2021/08/10 00:38:55;;;;;;;46.72;28.70;;;;;;;21.34;73.22;99730.59;5115715;27;20695;-75
2021/08/10 00:41:21;;;;;;;53.80;29.63;;;;;;;21.31;73.56;99722.91;5114972;27;20070;-70
2021/08/10 00:43:50;;;;;;;50.40;28.10;;;;;;;21.27;73.51;99724.28;5147979;27;20115;-70
2021/08/10 00:46:20;;;;;;;51.28;28.73;;;;;;;21.23;73.89;99731.06;5140488;27;20057;-70
2021/08/10 00:48:46;;;;;;;56.13;29.60;;;;;;;21.20;74.05;99731.44;5134658;27;20084;-72
2021/08/10 00:51:16;;;;;;;56.35;30.17;;;;;;;21.18;73.99;99728.94;5143725;27;20042;-71
2021/08/10 00:53:47;;;;;;;58.05;31.17;;;;;;;21.14;74.30;99733.03;5141856;27;20509;-70
2021/08/10 00:56:16;;;;;;;53.20;30.90;;;;;;;21.13;74.30;99726.81;5137888;27;20045;-71
2021/08/10 00:58:44;;;;;;;61.10;32.00;;;;;;;21.10;74.45;99727.19;5152698;27;20046;-70
2021/08/10 01:01:11;;;;;;;;;;;;;;;21.07;74.71;99727.56;5155917;27;20042;-73
2021/08/10 01:03:38;;;;;;;59.80;33.00;;;;;;;21.05;74.80;99731.44;5154847;27;20389;-70
2021/08/10 01:06:12;;;;;;;59.20;34.70;;;;;;;21.05;74.72;99726.91;5139930;27;20504;-70
2021/08/10 01:09:12;;;;;;;69.47;35.47;;;;;;;21.04;74.81;99727.91;5134990;27;20066;-70
2021/08/10 01:12:00;;;;;;;61.03;35.92;;;;;;;21.03;74.83;99720.88;5134805;27;20740;-73
2021/08/10 01:14:40;;;;;;;74.13;41.00;;;;;;;20.98;75.22;99728.66;5144843;27;20099;-70
2021/08/10 01:17:21;;;;;;;74.68;40.90;;;;;;;20.96;75.20;99730.69;5157404;27;20414;-70
2021/08/10 01:19:54;;;;;;;69.65;39.70;;;;;;;20.91;75.13;99727.72;5135251;27;20049;-75
2021/08/10 01:22:21;;;;;;;74.10;39.95;;;;;;;20.88;75.31;99725.41;5136224;27;20529;-73
2021/08/10 01:25:18;;;;;;;71.60;40.00;;;;;;;20.85;75.67;99722.06;5155258;27;20091;-69
2021/08/10 01:28:16;;;;;;;72.35;40.42;;;;;;;20.79;75.93;99724.66;5118170;27;20403;-71
2021/08/10 01:31:07;;;;;;;73.00;40.55;;;;;;;20.76;76.06;99725.88;5134918;27;20376;-69
2021/08/10 01:33:41;;;;;;;78.60;40.78;;;;;;;20.73;75.94;99720.84;5145737;27;20095;-69
2021/08/10 01:36:11;;;;;;;69.65;37.70;;;;;;;20.71;76.10;99722.91;5137704;27;20038;-71
2021/08/10 01:38:43;;;;;;;76.47;38.80;;;;;;;20.70;76.17;99729.25;5149568;27;20398;-70
2021/08/10 01:41:12;;;;;;;72.35;39.55;;;;;;;20.68;76.01;99717.84;5133850;27;20067;-70
2021/08/10 01:43:40;;;;;;;74.45;38.40;;;;;;;20.74;75.91;99722.53;5118675;27;20184;-70
2021/08/10 01:46:07;;;;;;;74.50;40.35;;;;;;;20.76;75.91;99720.50;5130821;27;20066;-71
2021/08/10 01:48:36;;;;;;;81.97;41.65;;;;;;;20.77;75.90;99724.88;5146099;27;20046;-73
2021/08/10 01:51:05;;;;;;;78.93;41.60;;;;;;;20.73;75.75;99720.84;5151057;27;20071;-72
2021/08/10 01:53:33;;;;;;;76.68;42.47;;;;;;;20.69;76.01;99720.34;5131473;27;20050;-70
2021/08/10 01:55:59;;;;;;;;;;;;;;;20.65;76.30;99729.81;5111072;28;20384;-71
2021/08/10 01:58:35;;;;;;;76.32;42.47;;;;;;;20.61;76.20;99723.13;5138227;27;20013;-72
2021/08/10 02:01:02;;;;;;;83.13;42.72;;;;;;;20.60;76.41;99736.72;5112242;28;20085;-73
2021/08/10 02:03:30;;;;;;;77.80;41.03;;;;;;;20.56;76.56;99727.38;5129201;27;20074;-71
2021/08/10 02:06:05;;;;;;;70.47;40.72;;;;;;;20.53;76.77;99724.03;5126690;27;20042;-70
2021/08/10 02:08:34;;;;;;;79.22;40.80;;;;;;;20.50;76.92;99731.66;5145511;27;20043;-70
2021/08/10 02:11:01;;;;;;;88.05;42.15;;;;;;;20.48;77.03;99723.75;5113683;28;20090;-69
2021/08/10 02:13:30;;;;;;;91.95;42.80;;;;;;;20.49;77.17;99729.97;5123960;27;20045;-70
2021/08/10 02:15:57;;;;;;;77.45;40.60;;;;;;;20.46;77.21;99719.56;5138709;27;20038;-74
2021/08/10 02:18:25;;;;;;;85.20;41.78;;;;;;;20.44;77.13;99717.06;5138919;27;20042;-70
2021/08/10 02:21:07;;;;;;;74.38;41.30;;;;;;;20.43;76.99;99718.09;5135810;27;20051;-72
2021/08/10 02:23:35;;;;;;;79.85;42.15;;;;;;;20.44;77.28;99721.63;5125251;27;20036;-74
2021/08/10 02:26:01;;;;;;;78.82;39.90;;;;;;;20.43;77.27;99720.75;5116466;27;20895;-73
2021/08/10 02:28:27;;;;;;;84.45;43.65;;;;;;;20.45;76.98;99715.22;5117464;27;20050;-72
2021/08/10 02:30:56;;;;;;;87.57;42.53;;;;;;;20.46;77.15;99717.72;5113888;27;20097;-71
2021/08/10 02:33:32;;;;;;;77.70;38.35;;;;;;;20.50;75.97;99718.22;5129240;27;20406;-70
2021/08/10 02:35:59;;;;;;;93.95;40.42;;;;;;;20.57;75.29;99721.00;5122026;27;20043;-73
2021/08/10 02:38:28;;;;;;;81.50;38.38;;;;;;;20.63;74.72;99720.25;5120719;27;20051;-69
2021/08/10 02:40:56;;;;;;;91.10;38.92;;;;;;;20.67;74.24;99721.56;5117829;27;20046;-70
2021/08/10 02:43:25;;;;;;;78.40;38.58;;;;;;;20.72;73.49;99719.19;5140832;27;20039;-73
2021/08/10 02:45:52;;;;;;;67.28;32.92;;;;;;;20.78;72.95;99723.00;5130133;27;20057;-70
2021/08/10 02:48:19;;;;;;;76.13;33.38;;;;;;;20.82;72.93;99718.91;5147275;27;20038;-72
2021/08/10 02:50:47;;;;;;;55.85;29.08;;;;;;;20.88;71.54;99717.34;5142512;27;20486;-71
2021/08/10 02:53:13;;;;;;;76.82;31.40;;;;;;;20.93;71.03;99721.13;5175534;27;20038;-70
2021/08/10 02:55:42;;;;;;;64.57;30.98;;;;;;;20.94;71.05;99717.44;5174486;27;20510;-73
2021/08/10 02:58:10;;;;;;;68.25;31.50;;;;;;;20.98;71.11;99723.28;5117874;27;20047;-72
2021/08/10 03:00:46;;;;;;;60.50;28.10;;;;;;;21.05;70.21;99723.38;5139074;27;20458;-76
2021/08/10 03:03:16;;;;;;;72.17;31.83;;;;;;;21.10;70.29;99718.28;5132247;27;20064;-71
2021/08/10 03:05:42;;;;;;;65.47;29.00;;;;;;;21.14;69.82;99716.88;5141995;27;20042;-74
2021/08/10 03:08:15;;;;;;;53.30;27.95;;;;;;;21.21;68.67;99716.97;5136512;27;20407;-74
2021/08/10 03:10:42;;;;;;;47.92;24.80;;;;;;;21.27;67.89;99716.22;5143191;27;20125;-70
2021/08/10 03:13:09;;;;;;;43.17;21.30;;;;;;;21.39;66.43;99717.41;5131944;27;20522;-71
2021/08/10 03:15:38;;;;;;;36.13;20.38;;;;;;;21.49;65.20;99707.16;5158098;27;20125;-71
2021/08/10 03:18:08;;;;;;;42.72;21.48;;;;;;;21.59;65.16;99708.78;5122625;27;20458;-74
2021/08/10 03:20:36;;;;;;;38.45;19.77;;;;;;;21.73;64.09;99713.28;5148838;27;20397;-73
2021/08/10 03:23:03;;;;;;;38.03;19.35;;;;;;;21.77;63.65;99706.50;5170687;27;20444;-75
2021/08/10 03:25:30;;;;;;;39.75;21.27;;;;;;;21.80;63.83;99707.97;5140937;27;20049;-73
2021/08/10 03:27:56;;;;;;;39.90;21.43;;;;;;;21.83;63.88;99709.44;5155469;27;20041;-74
2021/08/10 03:30:22;;;;;;;42.28;21.83;;;;;;;21.84;64.21;99706.56;5154952;27;20043;-72
2021/08/10 03:32:50;;;;;;;44.53;21.80;;;;;;;21.85;64.09;99699.31;5116255;27;20126;-71
2021/08/10 03:35:19;;;;;;;42.55;21.70;;;;;;;21.87;63.91;99700.81;5115477;27;20054;-72
2021/08/10 03:37:46;;;;;;;;;;;;;;;21.92;63.65;99708.28;5137572;27;20049;-72
2021/08/10 03:40:13;;;;;;;39.45;20.92;;;;;;;22.00;63.09;99697.41;5138899;27;19918;-72
2021/08/10 03:42:39;;;;;;;39.13;17.10;;;;;;;22.07;61.84;99701.00;5141518;27;20071;-71
2021/08/10 03:45:07;;;;;;;36.08;18.92;;;;;;;22.18;61.00;99696.09;5120364;27;20047;-71
2021/08/10 03:47:33;;;;;;;34.85;18.50;;;;;;;22.30;60.75;99699.94;5133914;27;20042;-74
2021/08/10 03:50:00;;;;;;;38.28;18.70;;;;;;;22.42;60.28;99692.19;5155689;27;20043;-72
2021/08/10 03:52:27;;;;;;;33.63;16.63;;;;;;;22.53;59.35;99698.91;5105409;27;20104;-72
2021/08/10 03:54:54;;;;;;;32.28;16.73;;;;;;;22.63;58.93;99699.41;5147391;27;20050;-71
2021/08/10 03:57:21;;;;;;;;;;;;;;;22.71;58.15;99701.94;5156355;27;20038;-72
2021/08/10 03:59:52;;;;;;;26.50;15.63;;;;;;;22.86;57.83;99695.59;5130760;27;20294;-71
2021/08/10 04:02:17;;;;;;;36.75;17.45;;;;;;;23.01;57.84;99699.00;5116231;27;20043;-72
2021/08/10 04:04:45;;;;;;;30.70;16.87;;;;;;;23.12;57.19;99694.91;5152728;27;20050;-71
2021/08/10 04:07:12;;;;;;;31.27;16.63;;;;;;;23.23;57.22;99694.38;5133748;27;20546;-72
2021/08/10 04:09:40;;;;;;;31.27;16.45;;;;;;;23.37;57.15;99705.22;5123450;27;20584;-73
2021/08/10 04:12:13;;;;;;;35.10;16.00;;;;;;;23.51;56.67;99706.09;5128873;27;20061;-72
2021/08/10 04:14:43;;;;;;;29.65;15.90;;;;;;;23.62;56.04;99702.00;5132118;27;20121;-73
2021/08/10 04:17:13;;;;;;;33.70;17.35;;;;;;;23.74;55.38;99693.09;5153029;27;20046;-74
2021/08/10 04:19:53;;;;;;;26.15;14.05;;;;;;;23.86;54.48;99693.34;5152457;27;20041;-73
2021/08/10 04:22:21;;;;;;;31.30;15.48;;;;;;;24.01;54.40;99692.31;5147768;27;20503;-74
2021/08/10 04:24:47;;;;;;;32.88;14.45;;;;;;;24.54;53.06;99677.97;5154065;27;20057;-76
2021/08/10 04:27:15;;;;;;;28.23;14.13;;;;;;;26.02;50.01;99680.09;5155469;27;20432;-75
2021/08/10 04:29:42;;;;;;;33.40;15.02;;;;;;;27.15;46.85;99677.41;5142641;27;20753;-71
2021/08/10 04:32:09;;;;;;;34.58;14.30;;;;;;;28.16;44.38;99672.25;5152443;27;20031;-74
2021/08/10 04:34:37;;;;;;;27.75;13.25;;;;;;;28.88;42.09;99671.19;5172749;27;20038;-72
2021/08/10 04:37:04;;;;;;;31.02;14.07;;;;;;;29.34;41.41;99662.34;5153622;27;20049;-75
2021/08/10 04:39:31;;;;;;;34.88;14.77;;;;;;;30.01;40.04;99663.56;5148446;27;20410;-70
2021/08/10 04:41:59;;;;;;;34.42;17.15;;;;;;;30.79;38.42;99660.94;5137671;27;20086;-72
2021/08/10 04:44:24;;;;;;;37.35;15.27;;;;;;;31.48;36.88;99661.50;5134741;27;20042;-76
2021/08/10 04:46:51;;;;;;;33.28;15.27;;;;;;;31.54;37.14;99659.63;5131229;27;20142;-71
2021/08/10 04:49:17;;;;;;;34.40;15.30;;;;;;;30.67;37.89;99671.16;5142113;27;20129;-75
2021/08/10 04:51:43;;;;;;;26.88;14.43;;;;;;;29.67;39.24;99679.84;5141563;27;20062;-75
2021/08/10 04:54:16;;;;;;;32.70;14.43;;;;;;;28.57;40.81;99669.66;5131547;27;20538;-76
2021/08/10 04:56:43;;;;;;;26.67;14.18;;;;;;;28.38;41.34;99677.13;5133018;27;20039;-74
2021/08/10 04:59:09;;;;;;;30.30;15.05;;;;;;;28.05;41.78;99673.06;5142250;27;20050;-71
2021/08/10 05:01:39;;;;;;;25.65;13.70;;;;;;;27.72;42.74;99675.19;5137914;27;20099;-73
2021/08/10 05:04:06;;;;;;;25.15;14.30;;;;;;;27.58;43.00;99668.31;5152135;27;20495;-72
2021/08/10 05:06:36;;;;;;;30.63;14.07;;;;;;;27.54;43.11;99657.06;5152450;27;20054;-73
2021/08/10 05:09:03;;;;;;;27.55;15.27;;;;;;;27.47;43.24;99660.94;5143828;27;20521;-74
2021/08/10 05:11:29;;;;;;;;;;;;;;;27.67;43.52;99664.19;5139054;27;20448;-72
2021/08/10 05:13:55;;;;;;;31.13;14.13;;;;;;;28.32;42.57;99672.63;5134862;27;19915;-73
2021/08/10 05:16:22;;;;;;;;;;;;;;;28.16;42.69;99666.81;5152029;27;20284;-72
2021/08/10 05:18:49;;;;;;;32.17;15.68;;;;;;;28.27;43.46;99664.34;5150217;27;19958;-76
2021/08/10 05:21:16;;;;;;;45.28;16.13;;;;;;;28.85;42.56;99666.25;5148636;27;20054;-72
2021/08/10 05:23:46;;;;;;;41.40;17.73;;;;;;;28.28;43.70;99666.00;5131331;27;20043;-73
2021/08/10 05:26:12;;;;;;;51.55;16.70;;;;;;;28.38;43.77;99660.81;5131959;27;20050;-75
2021/08/10 05:28:42;;;;;;;55.10;17.60;;;;;;;27.99;44.75;99666.66;5139981;27;20039;-71
2021/08/10 05:31:09;;;;;;;50.80;18.50;;;;;;;27.72;44.75;99664.31;5149679;27;20506;-73
2021/08/10 05:33:35;;;;;;;57.75;18.67;;;;;;;27.40;45.80;99661.03;5140402;27;20046;-74
2021/08/10 05:36:02;;;;;;;;;;;;;;;27.13;46.39;99661.34;5132821;27;20039;-72
2021/08/10 05:38:28;;;;;;;39.87;17.20;;;;;;;26.88;46.66;99662.25;5135634;27;19915;-75
2021/08/10 05:40:54;;;;;;;45.47;18.65;;;;;;;26.62;47.64;99656.03;5134726;27;20035;-74
2021/08/10 05:43:20;;;;;;;42.10;18.45;;;;;;;26.49;47.65;99661.59;5149197;27;20042;-74
2021/08/10 05:45:45;;;;;;;39.33;17.67;;;;;;;26.19;48.92;99662.28;5153372;27;20039;-73
2021/08/10 05:48:16;;;;;;;51.85;18.85;;;;;;;26.04;48.83;99659.84;5158728;27;20068;-71
2021/08/10 05:50:44;;;;;;;43.55;19.10;;;;;;;25.98;49.22;99661.59;5153571;27;20037;-73
2021/08/10 05:53:09;;;;;;;47.70;19.67;;;;;;;25.95;50.19;99666.63;5157156;27;20414;-74
2021/08/10 05:55:38;;;;;;;45.72;18.58;;;;;;;27.52;47.48;99652.94;5138478;27;20051;-73
2021/08/10 05:58:04;;;;;;;42.13;19.85;;;;;;;29.86;43.11;99653.19;5142083;27;20073;-73
2021/08/10 06:00:30;;;;;;;38.08;19.77;;;;;;;31.27;40.30;99660.47;5140746;27;20062;-75
2021/08/10 06:03:05;;;;;;;61.88;18.23;;;;;;;32.78;36.08;99653.25;5154956;27;21023;-74
2021/08/10 06:05:30;;;;;;;43.47;19.52;;;;;;;33.75;34.77;99653.81;5164269;27;20070;-75
2021/08/10 06:07:56;;;;;;;42.57;18.40;;;;;;;35.20;32.94;99655.22;5151494;27;20042;-77
2021/08/10 06:10:25;;;;;;;54.63;18.38;;;;;;;36.35;30.57;99659.66;5147328;27;20411;-73
2021/08/10 06:12:51;;;;;;;40.28;16.60;;;;;;;36.87;28.47;99654.41;5139112;27;20439;-75
2021/08/10 06:15:17;;;;;;;40.60;15.82;;;;;;;36.83;28.23;99660.81;5148281;27;20473;-72
2021/08/10 06:17:43;;;;;;;33.30;15.43;;;;;;;36.61;28.42;99666.84;5159931;27;20134;-76
2021/08/10 06:20:11;;;;;;;41.00;16.05;;;;;;;37.32;27.20;99661.56;5143948;27;20072;-76
2021/08/10 06:22:38;;;;;;;37.63;16.70;;;;;;;37.38;26.60;99652.13;5139195;27;20047;-76
2021/08/10 06:25:06;;;;;;;40.42;16.27;;;;;;;37.66;26.72;99649.47;5137718;27;20103;-74
2021/08/10 06:27:31;;;;;;;32.20;14.90;;;;;;;38.36;25.93;99656.09;5137955;27;20046;-72
2021/08/10 06:29:57;;;;;;;26.35;14.32;;;;;;;38.52;25.24;99662.09;5126930;27;20049;-78
2021/08/10 06:32:23;;;;;;;32.83;16.27;;;;;;;37.64;26.35;99658.06;5139903;27;20042;-76
2021/08/10 06:34:49;;;;;;;32.92;17.10;;;;;;;36.00;28.77;99652.53;5148635;27;20048;-76
2021/08/10 06:37:23;;;;;;;32.50;14.93;;;;;;;35.88;28.90;99656.50;5150603;27;20050;-73
2021/08/10 06:39:51;;;;;;;29.05;15.02;;;;;;;34.91;29.96;99661.41;5137788;27;20050;-77
2021/08/10 06:42:21;;;;;;;29.67;16.05;;;;;;;33.73;31.98;99658.78;5147396;27;20077;-73
2021/08/10 06:44:56;;;;;;;27.30;14.85;;;;;;;33.12;32.51;99665.72;5153794;27;20414;-78
2021/08/10 06:47:22;;;;;;;29.23;14.88;;;;;;;32.13;34.19;99660.72;5175094;27;20382;-72
2021/08/10 06:49:48;;;;;;;24.70;14.47;;;;;;;31.51;35.48;99660.97;5156605;27;20034;-74
2021/08/10 06:52:13;;;;;;;28.83;14.00;;;;;;;31.16;35.86;99661.44;5141649;27;20050;-77
2021/08/10 06:54:39;;;;;;;25.90;14.77;;;;;;;31.31;35.69;99656.13;5134786;27;20046;-76
2021/08/10 06:57:07;;;;;;;;;;;;;;;31.58;34.79;99655.31;5144114;27;20038;-76
2021/08/10 06:59:37;;;;;;;30.13;16.52;;;;;;;33.45;32.00;99647.19;5133849;27;19915;-76
2021/08/10 07:02:06;;;;;;;27.20;14.43;;;;;;;35.02;29.73;99640.22;5137444;27;20038;-76
2021/08/10 07:04:32;;;;;;;28.90;13.88;;;;;;;35.84;28.40;99636.13;5137272;27;20106;-79
2021/08/10 07:07:03;;;;;;;32.80;13.70;;;;;;;36.32;27.55;99631.88;5137236;27;20129;-77
2021/08/10 07:09:33;;;;;;;35.65;14.05;;;;;;;37.24;26.17;99629.94;5137180;27;20038;-77
2021/08/10 07:12:01;;;;;;;43.58;15.25;;;;;;;38.41;25.15;99628.34;5137179;27;20047;-79
2021/08/10 07:14:29;;;;;;;46.40;14.82;;;;;;;38.55;24.16;99635.84;5120136;27;20053;-78
2021/08/10 07:16:59;;;;;;;49.33;15.43;;;;;;;38.25;24.70;99635.28;5137602;27;20499;-80
2021/08/10 07:19:28;;;;;;;38.65;15.05;;;;;;;38.02;24.81;99646.16;5137016;27;20035;-79
2021/08/10 07:21:54;;;;;;;36.55;13.63;;;;;;;37.38;25.79;99641.09;5119833;27;20049;-75
2021/08/10 07:24:22;;;;;;;30.55;13.57;;;;;;;36.16;27.80;99639.44;5136963;27;20030;-77
2021/08/10 07:26:48;;;;;;;35.75;14.63;;;;;;;35.81;28.63;99641.38;5119852;27;20050;-77
2021/08/10 07:29:13;;;;;;;40.83;16.35;;;;;;;35.52;28.86;99647.63;5137180;27;20038;-79
2021/08/10 07:31:39;;;;;;;39.95;14.98;;;;;;;35.41;27.91;99642.22;5136957;27;20427;-78
2021/08/10 07:34:09;;;;;;;30.50;14.75;;;;;;;35.60;28.93;99647.03;5119845;27;20097;-76
2021/08/10 07:36:39;;;;;;;28.55;14.20;;;;;;;35.84;27.12;99643.56;5136907;27;20164;-78
2021/08/10 07:39:05;;;;;;;27.63;13.50;;;;;;;36.02;27.25;99642.88;5136752;27;20125;-78
2021/08/10 07:41:31;;;;;;;28.98;14.15;;;;;;;35.55;28.28;99641.56;5137153;27;20053;-78
2021/08/10 07:44:02;;;;;;;30.83;15.35;;;;;;;35.55;28.01;99639.63;5136930;27;20175;-81
2021/08/10 07:46:28;;;;;;;30.90;15.05;;;;;;;35.85;28.04;99650.69;5154609;27;20145;-78
2021/08/10 07:48:54;;;;;;;28.92;14.40;;;;;;;36.33;27.37;99650.03;5137099;27;20416;-75
2021/08/10 07:51:21;;;;;;;32.42;15.45;;;;;;;36.35;27.80;99642.28;5136759;27;20491;-77
2021/08/10 07:53:47;;;;;;;31.40;15.57;;;;;;;36.72;27.39;99640.81;5155649;27;20035;-79
2021/08/10 07:56:13;;;;;;;35.95;16.38;;;;;;;36.69;27.11;99635.84;5137557;27;20050;-77
2021/08/10 07:58:39;;;;;;;33.28;16.15;;;;;;;36.06;28.89;99632.09;5137045;27;20550;-75
2021/08/10 08:01:06;;;;;;;44.08;16.25;;;;;;;35.37;29.42;99629.31;5136437;27;20387;-76
2021/08/10 08:03:32;;;;;;;36.55;15.52;;;;;;;33.92;31.85;99634.38;5153789;27;20051;-77
2021/08/10 08:05:58;;;;;;;51.85;18.52;;;;;;;33.21;33.56;99642.19;5136517;27;20133;-79
2021/08/10 08:08:25;;;;;;;39.30;17.77;;;;;;;33.35;33.39;99631.56;5136291;27;20121;-78
2021/08/10 08:10:51;;;;;;;46.88;18.33;;;;;;;33.02;34.49;99625.41;5154599;27;20149;-79
2021/08/10 08:13:17;;;;;;;33.78;18.08;;;;;;;33.22;34.91;99625.47;5154304;27;20118;-77
2021/08/10 08:15:43;;;;;;;37.47;18.23;;;;;;;33.89;33.51;99608.31;5135943;27;20125;-77
2021/08/10 08:18:09;;;;;;;31.93;17.27;;;;;;;34.38;32.98;99617.88;5135911;27;20364;-76
2021/08/10 08:20:36;;;;;;;44.42;18.80;;;;;;;35.11;31.64;99607.44;5135683;27;20038;-78
2021/08/10 08:23:02;;;;;;;36.38;17.75;;;;;;;35.33;30.70;99606.19;5154438;27;20521;-77
2021/08/10 08:25:28;;;;;;;36.30;18.48;;;;;;;35.66;30.45;99620.31;5136022;27;20046;-78
2021/08/10 08:27:54;;;;;;;35.97;17.10;;;;;;;35.55;30.02;99625.06;5136151;27;20515;-79
2021/08/10 08:30:21;;;;;;;28.70;15.32;;;;;;;35.49;29.96;99610.50;5118888;27;20387;-77
2021/08/10 08:32:47;;;;;;;36.38;16.92;;;;;;;34.92;31.29;99618.25;5135706;27;20051;-73
2021/08/10 08:35:14;;;;;;;29.80;16.55;;;;;;;34.91;31.00;99617.44;5118359;27;20042;-78
2021/08/10 08:37:41;;;;;;;32.25;17.55;;;;;;;34.85;31.02;99624.03;5119129;27;20078;-74
2021/08/10 08:40:07;;;;;;;30.50;16.77;;;;;;;34.71;31.14;99633.97;5135628;27;20081;-80
2021/08/10 08:42:34;;;;;;;30.88;17.55;;;;;;;34.70;30.92;99632.34;5134629;27;20038;-79
2021/08/10 08:45:07;;;;;;;28.70;15.90;;;;;;;34.81;30.91;99633.94;5118230;27;20046;-79
2021/08/10 08:47:35;;;;;;;30.58;15.85;;;;;;;35.32;30.18;99627.41;5135166;27;20081;-76
2021/08/10 08:50:01;;;;;;;26.98;14.27;;;;;;;35.74;28.92;99628.78;5136397;27;20058;-78
2021/08/10 08:52:30;;;;;;;29.88;13.40;;;;;;;35.66;29.13;99631.31;5114902;27;20602;-77
2021/08/10 08:54:57;;;;;;;32.28;13.32;;;;;;;35.88;28.67;99628.13;5112566;27;20042;-83
2021/08/10 08:57:23;;;;;;;25.33;14.88;;;;;;;34.58;30.66;99644.47;5149616;27;20046;-80
2021/08/10 08:59:49;;;;;;;29.23;13.70;;;;;;;33.68;32.07;99641.22;5135086;27;20053;-82
2021/08/10 09:02:18;;;;;;;29.48;14.30;;;;;;;32.82;33.45;99646.16;5134886;27;20493;-78
2021/08/10 09:04:45;;;;;;;30.42;15.98;;;;;;;32.37;34.89;99640.13;5135372;27;20050;-76
2021/08/10 09:07:13;;;;;;;27.75;15.68;;;;;;;32.06;35.76;99644.53;5136078;27;20039;-76
2021/08/10 09:09:40;;;;;;;27.10;15.57;;;;;;;31.55;36.88;99633.94;5134643;27;20050;-75
2021/08/10 09:12:14;;;;;;;28.30;15.00;;;;;;;31.32;37.47;99640.53;5102185;27;20050;-79
2021/08/10 09:14:52;;;;;;;34.63;15.68;;;;;;;31.14;37.69;99632.44;5135854;27;20578;-76
2021/08/10 09:17:25;;;;;;;33.10;14.93;;;;;;;30.65;38.71;99632.34;5139182;27;20038;-78
2021/08/10 09:20:01;;;;;;;33.70;15.48;;;;;;;30.35;39.87;99633.53;5138649;27;20522;-79
2021/08/10 09:22:28;;;;;;;33.55;15.27;;;;;;;30.27;40.33;99642.13;5138654;27;20050;-78
2021/08/10 09:25:06;;;;;;;26.60;15.57;;;;;;;29.61;41.08;99634.47;5138694;27;20454;-77
2021/08/10 09:27:37;;;;;;;26.35;14.73;;;;;;;29.28;42.20;99646.94;5138556;27;20050;-79
2021/08/10 09:30:10;;;;;;;33.45;19.30;;;;;;;29.08;43.00;99656.34;5122068;27;20066;-76
2021/08/10 09:32:51;;;;;;;34.47;17.33;;;;;;;28.83;43.48;99640.31;5139547;27;20555;-76
2021/08/10 09:35:19;;;;;;;28.98;14.73;;;;;;;28.81;43.10;99647.88;5139122;27;20045;-78
2021/08/10 09:38:05;;;;;;;28.17;14.05;;;;;;;29.03;43.08;99645.34;5139447;27;20050;-80
2021/08/10 09:40:42;;;;;;;27.02;15.10;;;;;;;29.74;40.89;99650.53;5138834;27;20062;-78
2021/08/10 09:43:32;;;;;;;24.60;14.38;;;;;;;29.93;40.88;99642.16;5139092;27;20091;-77
2021/08/10 09:46:20;;;;;;;26.58;13.57;;;;;;;29.74;40.63;99647.81;5156086;27;20483;-75
2021/08/10 09:48:57;;;;;;;31.95;14.30;;;;;;;30.42;38.88;99631.47;5139021;27;20046;-76
2021/08/10 09:51:28;;;;;;;26.33;13.77;;;;;;;30.77;38.05;99638.50;5138753;27;20046;-75
2021/08/10 09:53:57;;;;;;;29.77;13.57;;;;;;;30.44;37.13;99640.22;5138994;27;20043;-80
2021/08/10 09:57:05;;;;;;;24.98;13.55;;;;;;;30.63;37.82;99648.13;5138929;27;20051;-76
2021/08/10 09:59:40;;;;;;;30.48;13.50;;;;;;;30.67;37.52;99630.19;5153980;27;20055;-78
2021/08/10 10:02:18;;;;;;;27.63;13.65;;;;;;;30.57;36.89;99635.50;5138944;27;20452;-76
2021/08/10 10:04:55;;;;;;;27.13;13.45;;;;;;;30.27;38.00;99633.94;5139295;27;20046;-76
2021/08/10 10:07:22;;;;;;;27.67;14.00;;;;;;;30.45;37.94;99636.41;5138553;27;20042;-77
2021/08/10 10:10:08;;;;;;;26.63;13.40;;;;;;;30.29;38.38;99637.25;5157283;27;20057;-77
2021/08/10 10:12:41;;;;;;;32.70;14.15;;;;;;;30.15;38.29;99637.59;5121294;27;20065;-75
2021/08/10 10:15:08;;;;;;;27.25;13.07;;;;;;;30.24;37.90;99637.19;5156966;27;20054;-77
2021/08/10 10:17:35;;;;;;;30.05;14.48;;;;;;;30.13;38.08;99639.78;5138399;27;20122;-77
2021/08/10 10:20:01;;;;;;;32.08;14.30;;;;;;;30.17;38.22;99657.28;5138666;27;20042;-76
2021/08/10 10:22:28;;;;;;;26.60;14.45;;;;;;;29.95;38.12;99657.19;5157178;27;20042;-75
2021/08/10 10:24:56;;;;;;;29.80;13.73;;;;;;;29.77;39.11;99655.50;5138576;27;20158;-75
2021/08/10 10:27:23;;;;;;;29.83;14.23;;;;;;;29.28;39.89;99669.53;5155202;27;20403;-79
2021/08/10 10:29:53;;;;;;;24.77;13.77;;;;;;;28.84;41.02;99674.66;5157024;27;20045;-76
2021/08/10 10:32:21;;;;;;;25.90;14.65;;;;;;;28.68;41.66;99655.25;5156722;27;20046;-77
2021/08/10 10:34:47;;;;;;;28.42;14.75;;;;;;;28.67;42.00;99652.75;5156811;27;20406;-78
2021/08/10 10:37:27;;;;;;;24.95;14.52;;;;;;;28.44;42.28;99665.31;5156553;27;20137;-77
2021/08/10 10:40:00;;;;;;;26.95;14.23;;;;;;;28.18;43.21;99667.41;5138493;27;20043;-80
2021/08/10 10:42:26;;;;;;;26.17;14.23;;;;;;;28.10;43.59;99659.59;5138313;27;20084;-78
2021/08/10 10:44:52;;;;;;;26.08;13.95;;;;;;;28.12;43.81;99653.94;5121446;27;20031;-80
2021/08/10 10:47:24;;;;;;;27.05;14.18;;;;;;;28.16;44.36;99646.94;5156569;27;20115;-79
2021/08/10 10:49:56;;;;;;;28.10;13.60;;;;;;;28.28;43.77;99649.69;5156676;27;20054;-76
2021/08/10 10:52:29;;;;;;;28.48;13.75;;;;;;;28.37;43.80;99648.25;5156070;27;20039;-75
2021/08/10 10:54:56;;;;;;;21.35;14.05;;;;;;;28.58;43.22;99650.38;5156635;27;20030;-74
2021/08/10 10:57:31;;;;;;;29.08;14.75;;;;;;;28.77;42.57;99655.69;5155640;27;20038;-77
2021/08/10 11:00:04;;;;;;;27.40;13.63;;;;;;;28.88;42.40;99643.97;5156306;27;20441;-75
2021/08/10 11:02:34;;;;;;;30.65;14.18;;;;;;;28.82;42.71;99635.94;5156286;27;20337;-77
2021/08/10 11:05:06;;;;;;;30.17;15.13;;;;;;;28.89;42.37;99633.91;5156648;27;20039;-75
2021/08/10 11:07:44;;;;;;;23.92;13.90;;;;;;;29.01;42.53;99633.88;5153208;27;20602;-78
2021/08/10 11:10:16;;;;;;;29.73;13.23;;;;;;;29.45;41.76;99631.50;5135393;27;20054;-79
2021/08/10 11:12:46;;;;;;;37.78;15.30;;;;;;;29.69;41.18;99626.72;5134303;27;20150;-76
2021/08/10 11:15:12;;;;;;;25.95;13.90;;;;;;;29.69;41.11;99625.91;5134826;27;20461;-77
2021/08/10 11:17:38;;;;;;;32.70;14.95;;;;;;;29.63;41.04;99626.91;5135160;27;20062;-78
2021/08/10 11:20:24;;;;;;;32.97;16.05;;;;;;;29.66;41.04;99631.88;5134926;27;20452;-76
2021/08/10 11:22:49;;;;;;;26.50;13.65;;;;;;;29.49;41.15;99638.09;5134978;27;20183;-74
2021/08/10 11:25:23;;;;;;;30.15;16.02;;;;;;;29.33;41.55;99631.53;5116809;27;20060;-77
2021/08/10 11:27:49;;;;;;;34.30;21.15;;;;;;;29.11;42.35;99642.25;5116764;27;20051;-75
2021/08/10 11:30:20;;;;;;;27.88;14.95;;;;;;;28.87;42.74;99636.88;5134927;27;20047;-77